sensor_id;sensor_type;location;lat;lon;timestamp;temperature;humidity
52879;DHT22;38747;53.140;6.498;2024-02-21T00:02:05;9.30;99.90
52879;DHT22;38747;53.140;6.498;2024-02-21T00:04:31;9.30;99.90
52879;DHT22;38747;53.140;6.498;2024-02-21T00:06:56;9.30;99.90
52879;DHT22;38747;53.140;6.498;2024-02-21T00:09:22;9.30;99.90
52879;DHT22;38747;53.140;6.498;2024-02-21T00:11:48;9.20;99.90
52879;DHT22;38747;53.140;6.498;2024-02-21T00:14:13;9.20;99.90
52879;DHT22;38747;53.140;6.498;2024-02-21T00:16:39;9.20;99.90
52879;DHT22;38747;53.140;6.498;2024-02-21T00:19:04;9.10;99.90
52879;DHT22;38747;53.140;6.498;2024-02-21T00:21:30;9.10;99.90
52879;DHT22;38747;53.140;6.498;2024-02-21T00:23:56;9.10;99.90
52879;DHT22;38747;53.140;6.498;2024-02-21T00:26:21;9.10;99.90
52879;DHT22;38747;53.140;6.498;2024-02-21T00:28:47;9.10;99.90
52879;DHT22;38747;53.140;6.498;2024-02-21T00:31:12;9.00;99.90
52879;DHT22;38747;53.140;6.498;2024-02-21T00:33:38;9.00;99.90
52879;DHT22;38747;53.140;6.498;2024-02-21T00:36:04;9.00;99.90
52879;DHT22;38747;53.140;6.498;2024-02-21T00:38:29;9.00;99.90
52879;DHT22;38747;53.140;6.498;2024-02-21T00:40:55;9.00;99.90
52879;DHT22;38747;53.140;6.498;2024-02-21T00:43:21;9.00;99.90
52879;DHT22;38747;53.140;6.498;2024-02-21T00:45:49;9.00;99.90
52879;DHT22;38747;53.140;6.498;2024-02-21T00:48:14;9.00;99.90
52879;DHT22;38747;53.140;6.498;2024-02-21T00:50:40;8.90;99.90
52879;DHT22;38747;53.140;6.498;2024-02-21T00:53:06;8.90;99.90
52879;DHT22;38747;53.140;6.498;2024-02-21T00:55:31;8.90;99.90
52879;DHT22;38747;53.140;6.498;2024-02-21T00:57:57;8.90;99.90
52879;DHT22;38747;53.140;6.498;2024-02-21T01:00:22;8.90;99.90
52879;DHT22;38747;53.140;6.498;2024-02-21T01:02:48;8.90;99.90
52879;DHT22;38747;53.140;6.498;2024-02-21T01:05:14;8.90;99.90
52879;DHT22;38747;53.140;6.498;2024-02-21T01:07:39;8.80;99.90
52879;DHT22;38747;53.140;6.498;2024-02-21T01:10:06;8.90;99.90
52879;DHT22;38747;53.140;6.498;2024-02-21T01:12:31;8.90;99.90
52879;DHT22;38747;53.140;6.498;2024-02-21T01:14:57;8.90;99.90
52879;DHT22;38747;53.140;6.498;2024-02-21T01:17:22;8.80;99.90
52879;DHT22;38747;53.140;6.498;2024-02-21T01:19:48;8.90;99.90
52879;DHT22;38747;53.140;6.498;2024-02-21T01:22:14;8.90;99.90
52879;DHT22;38747;53.140;6.498;2024-02-21T01:24:41;8.90;99.90
52879;DHT22;38747;53.140;6.498;2024-02-21T01:27:07;8.90;99.90
52879;DHT22;38747;53.140;6.498;2024-02-21T01:29:32;8.90;99.90
52879;DHT22;38747;53.140;6.498;2024-02-21T01:31:58;8.90;99.90
52879;DHT22;38747;53.140;6.498;2024-02-21T01:34:23;8.90;99.90
52879;DHT22;38747;53.140;6.498;2024-02-21T01:36:49;8.90;99.90
52879;DHT22;38747;53.140;6.498;2024-02-21T01:39:15;8.80;99.90
52879;DHT22;38747;53.140;6.498;2024-02-21T01:41:40;8.90;99.90
52879;DHT22;38747;53.140;6.498;2024-02-21T01:44:06;8.90;99.90
52879;DHT22;38747;53.140;6.498;2024-02-21T01:46:32;8.80;99.90
52879;DHT22;38747;53.140;6.498;2024-02-21T01:48:57;8.80;99.90
52879;DHT22;38747;53.140;6.498;2024-02-21T01:51:26;8.80;99.90
52879;DHT22;38747;53.140;6.498;2024-02-21T01:53:53;8.70;99.90
52879;DHT22;38747;53.140;6.498;2024-02-21T01:56:19;8.70;99.90
52879;DHT22;38747;53.140;6.498;2024-02-21T01:58:46;8.70;99.90
52879;DHT22;38747;53.140;6.498;2024-02-21T02:01:12;8.70;99.90
52879;DHT22;38747;53.140;6.498;2024-02-21T02:03:37;8.70;99.90
52879;DHT22;38747;53.140;6.498;2024-02-21T02:06:05;8.70;99.90
52879;DHT22;38747;53.140;6.498;2024-02-21T02:08:32;8.70;99.90
52879;DHT22;38747;53.140;6.498;2024-02-21T02:10:58;8.70;99.90
52879;DHT22;38747;53.140;6.498;2024-02-21T02:13:24;8.70;99.90
52879;DHT22;38747;53.140;6.498;2024-02-21T02:15:50;8.70;99.90
52879;DHT22;38747;53.140;6.498;2024-02-21T02:18:19;8.70;99.90
52879;DHT22;38747;53.140;6.498;2024-02-21T02:20:45;8.70;99.90
52879;DHT22;38747;53.140;6.498;2024-02-21T02:23:30;8.70;99.90
52879;DHT22;38747;53.140;6.498;2024-02-21T02:25:57;8.70;99.90
52879;DHT22;38747;53.140;6.498;2024-02-21T02:28:23;8.70;99.90
52879;DHT22;38747;53.140;6.498;2024-02-21T02:30:49;8.70;99.90
52879;DHT22;38747;53.140;6.498;2024-02-21T02:33:15;8.60;99.90
52879;DHT22;38747;53.140;6.498;2024-02-21T02:35:42;8.70;99.90
52879;DHT22;38747;53.140;6.498;2024-02-21T02:38:08;8.70;99.90
52879;DHT22;38747;53.140;6.498;2024-02-21T02:40:37;8.70;99.90
52879;DHT22;38747;53.140;6.498;2024-02-21T02:43:03;8.70;99.90
52879;DHT22;38747;53.140;6.498;2024-02-21T02:45:29;8.70;99.90
52879;DHT22;38747;53.140;6.498;2024-02-21T02:47:55;8.70;99.90
52879;DHT22;38747;53.140;6.498;2024-02-21T02:50:22;8.70;99.90
52879;DHT22;38747;53.140;6.498;2024-02-21T02:52:48;8.80;99.90
52879;DHT22;38747;53.140;6.498;2024-02-21T02:55:13;8.70;99.90
52879;DHT22;38747;53.140;6.498;2024-02-21T02:57:39;8.70;99.90
52879;DHT22;38747;53.140;6.498;2024-02-21T03:00:07;8.70;99.90
52879;DHT22;38747;53.140;6.498;2024-02-21T03:02:34;8.70;99.90
52879;DHT22;38747;53.140;6.498;2024-02-21T03:04:59;8.70;99.90
52879;DHT22;38747;53.140;6.498;2024-02-21T03:07:25;8.70;99.90
52879;DHT22;38747;53.140;6.498;2024-02-21T03:09:51;8.70;99.90
52879;DHT22;38747;53.140;6.498;2024-02-21T03:12:18;8.70;99.90
52879;DHT22;38747;53.140;6.498;2024-02-21T03:14:50;8.70;99.90
52879;DHT22;38747;53.140;6.498;2024-02-21T03:17:16;8.60;99.90
52879;DHT22;38747;53.140;6.498;2024-02-21T03:19:41;8.60;99.90
52879;DHT22;38747;53.140;6.498;2024-02-21T03:22:07;8.70;99.90
52879;DHT22;38747;53.140;6.498;2024-02-21T03:24:33;8.60;99.90
52879;DHT22;38747;53.140;6.498;2024-02-21T03:26:59;8.60;99.90
52879;DHT22;38747;53.140;6.498;2024-02-21T03:29:25;8.60;99.90
52879;DHT22;38747;53.140;6.498;2024-02-21T03:31:50;8.70;99.90
52879;DHT22;38747;53.140;6.498;2024-02-21T03:34:16;8.60;99.90
52879;DHT22;38747;53.140;6.498;2024-02-21T03:36:42;8.60;99.90
52879;DHT22;38747;53.140;6.498;2024-02-21T03:39:07;8.70;99.90
52879;DHT22;38747;53.140;6.498;2024-02-21T03:41:34;8.60;99.90
52879;DHT22;38747;53.140;6.498;2024-02-21T03:44:00;8.70;99.90
52879;DHT22;38747;53.140;6.498;2024-02-21T03:46:27;8.70;99.90
52879;DHT22;38747;53.140;6.498;2024-02-21T03:48:52;8.70;99.90
52879;DHT22;38747;53.140;6.498;2024-02-21T03:51:18;8.60;99.90
52879;DHT22;38747;53.140;6.498;2024-02-21T03:53:44;8.70;99.90
52879;DHT22;38747;53.140;6.498;2024-02-21T03:56:09;8.60;99.90
52879;DHT22;38747;53.140;6.498;2024-02-21T03:58:35;8.60;99.90
52879;DHT22;38747;53.140;6.498;2024-02-21T04:01:01;8.60;99.90
52879;DHT22;38747;53.140;6.498;2024-02-21T04:03:27;8.60;99.90
52879;DHT22;38747;53.140;6.498;2024-02-21T04:05:52;8.60;99.90
52879;DHT22;38747;53.140;6.498;2024-02-21T04:08:18;8.60;99.90
52879;DHT22;38747;53.140;6.498;2024-02-21T04:10:44;8.50;99.90
52879;DHT22;38747;53.140;6.498;2024-02-21T04:13:09;8.50;99.90
52879;DHT22;38747;53.140;6.498;2024-02-21T04:15:35;8.60;99.90
52879;DHT22;38747;53.140;6.498;2024-02-21T04:18:01;8.50;99.90
52879;DHT22;38747;53.140;6.498;2024-02-21T04:20:28;8.50;99.90
52879;DHT22;38747;53.140;6.498;2024-02-21T04:22:54;8.50;99.90
52879;DHT22;38747;53.140;6.498;2024-02-21T04:25:20;8.60;99.90
52879;DHT22;38747;53.140;6.498;2024-02-21T04:27:46;8.50;99.90
52879;DHT22;38747;53.140;6.498;2024-02-21T04:30:12;8.50;99.90
52879;DHT22;38747;53.140;6.498;2024-02-21T04:32:38;8.60;99.90
52879;DHT22;38747;53.140;6.498;2024-02-21T04:35:04;8.60;99.90
52879;DHT22;38747;53.140;6.498;2024-02-21T04:37:30;8.50;99.90
52879;DHT22;38747;53.140;6.498;2024-02-21T04:39:56;8.50;99.90
52879;DHT22;38747;53.140;6.498;2024-02-21T04:42:22;8.60;99.90
52879;DHT22;38747;53.140;6.498;2024-02-21T04:44:47;8.60;99.90
52879;DHT22;38747;53.140;6.498;2024-02-21T04:47:13;8.50;99.90
52879;DHT22;38747;53.140;6.498;2024-02-21T04:49:39;8.50;99.90
52879;DHT22;38747;53.140;6.498;2024-02-21T04:52:05;8.60;99.90
52879;DHT22;38747;53.140;6.498;2024-02-21T04:54:30;8.50;99.90
52879;DHT22;38747;53.140;6.498;2024-02-21T04:56:56;8.60;99.90
52879;DHT22;38747;53.140;6.498;2024-02-21T04:59:21;8.50;99.90
52879;DHT22;38747;53.140;6.498;2024-02-21T05:01:47;8.60;99.90
52879;DHT22;38747;53.140;6.498;2024-02-21T05:04:13;8.50;99.90
52879;DHT22;38747;53.140;6.498;2024-02-21T05:06:41;8.50;99.90
52879;DHT22;38747;53.140;6.498;2024-02-21T05:09:08;8.50;99.90
52879;DHT22;38747;53.140;6.498;2024-02-21T05:11:34;8.60;99.90
52879;DHT22;38747;53.140;6.498;2024-02-21T05:14:00;8.50;99.90
52879;DHT22;38747;53.140;6.498;2024-02-21T05:16:26;8.50;99.90
52879;DHT22;38747;53.140;6.498;2024-02-21T05:18:51;8.60;99.90
52879;DHT22;38747;53.140;6.498;2024-02-21T05:21:17;8.60;99.90
52879;DHT22;38747;53.140;6.498;2024-02-21T05:23:43;8.60;99.90
52879;DHT22;38747;53.140;6.498;2024-02-21T05:26:09;8.60;99.90
52879;DHT22;38747;53.140;6.498;2024-02-21T05:28:34;8.60;99.90
52879;DHT22;38747;53.140;6.498;2024-02-21T05:31:00;8.60;99.90
52879;DHT22;38747;53.140;6.498;2024-02-21T05:33:26;8.60;99.90
52879;DHT22;38747;53.140;6.498;2024-02-21T05:35:51;8.60;99.90
52879;DHT22;38747;53.140;6.498;2024-02-21T05:38:17;8.60;99.90
52879;DHT22;38747;53.140;6.498;2024-02-21T05:40:44;8.50;99.90
52879;DHT22;38747;53.140;6.498;2024-02-21T05:43:10;8.60;99.90
52879;DHT22;38747;53.140;6.498;2024-02-21T05:45:36;8.60;99.90
52879;DHT22;38747;53.140;6.498;2024-02-21T05:48:02;8.60;99.90
52879;DHT22;38747;53.140;6.498;2024-02-21T05:50:28;8.50;99.90
52879;DHT22;38747;53.140;6.498;2024-02-21T05:52:54;8.60;99.90
52879;DHT22;38747;53.140;6.498;2024-02-21T05:55:21;8.60;99.90
52879;DHT22;38747;53.140;6.498;2024-02-21T05:57:47;8.50;99.90
52879;DHT22;38747;53.140;6.498;2024-02-21T06:00:13;8.60;99.90
52879;DHT22;38747;53.140;6.498;2024-02-21T06:02:39;8.60;99.90
52879;DHT22;38747;53.140;6.498;2024-02-21T06:05:05;8.50;99.90
52879;DHT22;38747;53.140;6.498;2024-02-21T06:07:33;8.60;99.90
52879;DHT22;38747;53.140;6.498;2024-02-21T06:10:00;8.50;99.90
52879;DHT22;38747;53.140;6.498;2024-02-21T06:12:25;8.60;99.90
52879;DHT22;38747;53.140;6.498;2024-02-21T06:14:51;8.60;99.90
52879;DHT22;38747;53.140;6.498;2024-02-21T06:17:17;8.50;99.90
52879;DHT22;38747;53.140;6.498;2024-02-21T06:19:43;8.50;99.90
52879;DHT22;38747;53.140;6.498;2024-02-21T06:22:09;8.50;99.90
52879;DHT22;38747;53.140;6.498;2024-02-21T06:24:37;8.50;99.90
52879;DHT22;38747;53.140;6.498;2024-02-21T06:27:06;8.50;99.90
52879;DHT22;38747;53.140;6.498;2024-02-21T06:29:32;8.50;99.90
52879;DHT22;38747;53.140;6.498;2024-02-21T06:31:59;8.50;99.90
52879;DHT22;38747;53.140;6.498;2024-02-21T06:34:25;8.50;99.90
52879;DHT22;38747;53.140;6.498;2024-02-21T06:36:51;8.50;99.90
52879;DHT22;38747;53.140;6.498;2024-02-21T06:39:17;8.50;99.90
52879;DHT22;38747;53.140;6.498;2024-02-21T06:41:43;8.50;99.90
52879;DHT22;38747;53.140;6.498;2024-02-21T06:44:08;8.50;99.90
52879;DHT22;38747;53.140;6.498;2024-02-21T06:46:34;8.60;99.90
52879;DHT22;38747;53.140;6.498;2024-02-21T06:49:00;8.50;99.90
52879;DHT22;38747;53.140;6.498;2024-02-21T06:51:26;8.60;99.90
52879;DHT22;38747;53.140;6.498;2024-02-21T06:53:53;8.50;99.90
52879;DHT22;38747;53.140;6.498;2024-02-21T06:56:18;8.60;99.90
52879;DHT22;38747;53.140;6.498;2024-02-21T06:58:44;8.50;99.90
52879;DHT22;38747;53.140;6.498;2024-02-21T07:01:10;8.50;99.90
52879;DHT22;38747;53.140;6.498;2024-02-21T07:03:36;8.50;99.90
52879;DHT22;38747;53.140;6.498;2024-02-21T07:06:02;8.60;99.90
52879;DHT22;38747;53.140;6.498;2024-02-21T07:08:27;8.50;99.90
52879;DHT22;38747;53.140;6.498;2024-02-21T07:10:53;8.50;99.90
52879;DHT22;38747;53.140;6.498;2024-02-21T07:13:19;8.60;99.90
52879;DHT22;38747;53.140;6.498;2024-02-21T07:15:44;8.50;99.90
52879;DHT22;38747;53.140;6.498;2024-02-21T07:18:10;8.50;99.90
52879;DHT22;38747;53.140;6.498;2024-02-21T07:20:35;8.50;99.90
52879;DHT22;38747;53.140;6.498;2024-02-21T07:23:04;8.60;99.90
52879;DHT22;38747;53.140;6.498;2024-02-21T07:25:29;8.60;99.90
52879;DHT22;38747;53.140;6.498;2024-02-21T07:27:55;8.60;99.90
52879;DHT22;38747;53.140;6.498;2024-02-21T07:30:21;8.50;99.90
52879;DHT22;38747;53.140;6.498;2024-02-21T07:32:49;8.60;99.90
52879;DHT22;38747;53.140;6.498;2024-02-21T07:35:16;8.60;99.90
52879;DHT22;38747;53.140;6.498;2024-02-21T07:37:41;8.70;99.90
52879;DHT22;38747;53.140;6.498;2024-02-21T07:40:12;8.70;99.90
52879;DHT22;38747;53.140;6.498;2024-02-21T07:42:38;8.60;99.90
52879;DHT22;38747;53.140;6.498;2024-02-21T07:45:04;8.60;99.90
52879;DHT22;38747;53.140;6.498;2024-02-21T07:47:30;8.70;99.90
52879;DHT22;38747;53.140;6.498;2024-02-21T07:49:55;8.70;99.90
52879;DHT22;38747;53.140;6.498;2024-02-21T07:52:21;8.60;99.90
52879;DHT22;38747;53.140;6.498;2024-02-21T07:54:47;8.70;99.90
52879;DHT22;38747;53.140;6.498;2024-02-21T07:57:12;8.70;99.90
52879;DHT22;38747;53.140;6.498;2024-02-21T07:59:38;8.70;99.90
52879;DHT22;38747;53.140;6.498;2024-02-21T08:02:03;8.70;99.90
52879;DHT22;38747;53.140;6.498;2024-02-21T08:04:32;8.70;99.90
52879;DHT22;38747;53.140;6.498;2024-02-21T08:06:57;8.80;99.90
52879;DHT22;38747;53.140;6.498;2024-02-21T08:09:27;8.80;99.90
52879;DHT22;38747;53.140;6.498;2024-02-21T08:11:54;8.80;99.90
52879;DHT22;38747;53.140;6.498;2024-02-21T08:14:20;8.80;99.90
52879;DHT22;38747;53.140;6.498;2024-02-21T08:16:46;8.80;99.90
52879;DHT22;38747;53.140;6.498;2024-02-21T08:19:11;8.70;99.90
52879;DHT22;38747;53.140;6.498;2024-02-21T08:21:37;8.70;99.90
52879;DHT22;38747;53.140;6.498;2024-02-21T08:24:03;8.80;99.90
52879;DHT22;38747;53.140;6.498;2024-02-21T08:26:28;8.80;99.90
52879;DHT22;38747;53.140;6.498;2024-02-21T08:28:56;8.80;99.90
52879;DHT22;38747;53.140;6.498;2024-02-21T08:31:25;8.80;99.90
52879;DHT22;38747;53.140;6.498;2024-02-21T08:33:57;8.80;99.90
52879;DHT22;38747;53.140;6.498;2024-02-21T08:36:28;8.80;99.90
52879;DHT22;38747;53.140;6.498;2024-02-21T08:38:54;8.80;99.90
52879;DHT22;38747;53.140;6.498;2024-02-21T08:41:20;8.80;99.90
52879;DHT22;38747;53.140;6.498;2024-02-21T08:43:48;8.80;99.90
52879;DHT22;38747;53.140;6.498;2024-02-21T08:46:14;8.80;99.90
52879;DHT22;38747;53.140;6.498;2024-02-21T08:48:39;8.80;99.90
52879;DHT22;38747;53.140;6.498;2024-02-21T08:51:05;8.80;99.90
52879;DHT22;38747;53.140;6.498;2024-02-21T08:53:30;8.80;99.90
52879;DHT22;38747;53.140;6.498;2024-02-21T08:55:57;8.80;99.90
52879;DHT22;38747;53.140;6.498;2024-02-21T08:58:22;8.80;99.90
52879;DHT22;38747;53.140;6.498;2024-02-21T09:00:49;8.80;99.90
52879;DHT22;38747;53.140;6.498;2024-02-21T09:03:16;8.80;99.90
52879;DHT22;38747;53.140;6.498;2024-02-21T09:05:43;8.80;99.90
52879;DHT22;38747;53.140;6.498;2024-02-21T09:08:08;8.80;99.90
52879;DHT22;38747;53.140;6.498;2024-02-21T09:10:34;8.90;99.90
52879;DHT22;38747;53.140;6.498;2024-02-21T09:13:00;8.80;99.90
52879;DHT22;38747;53.140;6.498;2024-02-21T09:15:25;8.80;99.90
52879;DHT22;38747;53.140;6.498;2024-02-21T09:17:52;8.80;99.90
52879;DHT22;38747;53.140;6.498;2024-02-21T09:20:17;8.80;99.90
52879;DHT22;38747;53.140;6.498;2024-02-21T09:22:43;8.90;99.90
52879;DHT22;38747;53.140;6.498;2024-02-21T09:25:09;8.90;99.90
52879;DHT22;38747;53.140;6.498;2024-02-21T09:27:37;8.90;99.90
52879;DHT22;38747;53.140;6.498;2024-02-21T09:30:04;8.90;99.90
52879;DHT22;38747;53.140;6.498;2024-02-21T09:32:30;8.90;99.90
52879;DHT22;38747;53.140;6.498;2024-02-21T09:34:57;8.90;99.90
52879;DHT22;38747;53.140;6.498;2024-02-21T09:37:24;8.90;99.90
52879;DHT22;38747;53.140;6.498;2024-02-21T09:39:49;8.90;99.90
52879;DHT22;38747;53.140;6.498;2024-02-21T09:42:20;8.90;99.90
52879;DHT22;38747;53.140;6.498;2024-02-21T09:44:45;8.90;99.90
52879;DHT22;38747;53.140;6.498;2024-02-21T09:47:40;8.90;99.90
52879;DHT22;38747;53.140;6.498;2024-02-21T09:50:09;8.90;99.90
52879;DHT22;38747;53.140;6.498;2024-02-21T09:52:35;8.90;99.90
52879;DHT22;38747;53.140;6.498;2024-02-21T09:55:03;9.00;99.90
52879;DHT22;38747;53.140;6.498;2024-02-21T09:57:30;9.00;99.90
52879;DHT22;38747;53.140;6.498;2024-02-21T09:59:57;9.00;99.90
52879;DHT22;38747;53.140;6.498;2024-02-21T10:02:24;9.00;99.90
52879;DHT22;38747;53.140;6.498;2024-02-21T10:04:50;9.10;99.90
52879;DHT22;38747;53.140;6.498;2024-02-21T10:07:15;9.00;99.90
52879;DHT22;38747;53.140;6.498;2024-02-21T10:09:41;9.00;99.90
52879;DHT22;38747;53.140;6.498;2024-02-21T10:12:11;9.00;99.90
52879;DHT22;38747;53.140;6.498;2024-02-21T10:14:37;9.00;99.90
52879;DHT22;38747;53.140;6.498;2024-02-21T10:17:03;9.00;99.90
52879;DHT22;38747;53.140;6.498;2024-02-21T10:19:34;8.90;99.90
52879;DHT22;38747;53.140;6.498;2024-02-21T10:22:07;9.00;99.90
52879;DHT22;38747;53.140;6.498;2024-02-21T10:24:36;9.00;99.90
52879;DHT22;38747;53.140;6.498;2024-02-21T10:27:08;9.00;99.90
52879;DHT22;38747;53.140;6.498;2024-02-21T10:29:36;9.10;99.90
52879;DHT22;38747;53.140;6.498;2024-02-21T10:32:11;9.10;99.90
52879;DHT22;38747;53.140;6.498;2024-02-21T10:34:39;9.10;99.90
52879;DHT22;38747;53.140;6.498;2024-02-21T10:37:06;9.20;99.90
52879;DHT22;38747;53.140;6.498;2024-02-21T10:39:33;9.20;99.90
52879;DHT22;38747;53.140;6.498;2024-02-21T10:42:01;9.20;99.90
52879;DHT22;38747;53.140;6.498;2024-02-21T10:44:34;9.20;99.90
52879;DHT22;38747;53.140;6.498;2024-02-21T10:47:09;9.20;99.90
52879;DHT22;38747;53.140;6.498;2024-02-21T10:49:40;9.20;99.90
52879;DHT22;38747;53.140;6.498;2024-02-21T10:52:22;9.30;99.90
52879;DHT22;38747;53.140;6.498;2024-02-21T10:55:00;9.40;99.90
52879;DHT22;38747;53.140;6.498;2024-02-21T10:57:29;9.50;99.90
52879;DHT22;38747;53.140;6.498;2024-02-21T10:59:58;9.50;99.90
52879;DHT22;38747;53.140;6.498;2024-02-21T11:02:25;9.60;99.90
52879;DHT22;38747;53.140;6.498;2024-02-21T11:04:52;9.60;99.90
52879;DHT22;38747;53.140;6.498;2024-02-21T11:07:19;9.70;99.90
52879;DHT22;38747;53.140;6.498;2024-02-21T11:09:52;9.80;99.90
52879;DHT22;38747;53.140;6.498;2024-02-21T11:12:23;9.80;99.90
52879;DHT22;38747;53.140;6.498;2024-02-21T11:14:49;9.90;99.90
52879;DHT22;38747;53.140;6.498;2024-02-21T11:17:15;9.90;99.90
52879;DHT22;38747;53.140;6.498;2024-02-21T11:19:42;9.90;99.90
52879;DHT22;38747;53.140;6.498;2024-02-21T11:22:15;9.90;99.90
52879;DHT22;38747;53.140;6.498;2024-02-21T11:24:45;9.90;99.90
52879;DHT22;38747;53.140;6.498;2024-02-21T11:27:19;9.90;99.90
52879;DHT22;38747;53.140;6.498;2024-02-21T11:29:47;9.80;99.90
52879;DHT22;38747;53.140;6.498;2024-02-21T11:32:17;9.90;99.90
52879;DHT22;38747;53.140;6.498;2024-02-21T11:34:57;10.00;99.90
52879;DHT22;38747;53.140;6.498;2024-02-21T11:37:28;9.90;99.90
52879;DHT22;38747;53.140;6.498;2024-02-21T11:39:57;9.90;99.90
52879;DHT22;38747;53.140;6.498;2024-02-21T11:42:25;9.90;99.90
52879;DHT22;38747;53.140;6.498;2024-02-21T11:44:50;9.90;99.90
52879;DHT22;38747;53.140;6.498;2024-02-21T11:47:16;9.80;99.90
52879;DHT22;38747;53.140;6.498;2024-02-21T11:49:47;9.90;99.90
52879;DHT22;38747;53.140;6.498;2024-02-21T11:52:14;9.90;99.90
52879;DHT22;38747;53.140;6.498;2024-02-21T11:54:44;9.90;99.90
52879;DHT22;38747;53.140;6.498;2024-02-21T11:57:10;9.80;99.90
52879;DHT22;38747;53.140;6.498;2024-02-21T11:59:40;9.80;99.90
52879;DHT22;38747;53.140;6.498;2024-02-21T12:02:06;9.80;99.90
52879;DHT22;38747;53.140;6.498;2024-02-21T12:04:32;9.70;99.90
52879;DHT22;38747;53.140;6.498;2024-02-21T12:06:58;9.70;99.90
52879;DHT22;38747;53.140;6.498;2024-02-21T12:09:25;9.70;99.90
52879;DHT22;38747;53.140;6.498;2024-02-21T12:14:24;9.70;99.90
52879;DHT22;38747;53.140;6.498;2024-02-21T12:16:50;9.60;99.90
52879;DHT22;38747;53.140;6.498;2024-02-21T12:19:16;9.70;99.90
52879;DHT22;38747;53.140;6.498;2024-02-21T12:21:42;9.60;99.90
52879;DHT22;38747;53.140;6.498;2024-02-21T12:24:23;9.60;99.90
52879;DHT22;38747;53.140;6.498;2024-02-21T12:26:53;9.60;99.90
52879;DHT22;38747;53.140;6.498;2024-02-21T12:29:22;9.60;99.90
52879;DHT22;38747;53.140;6.498;2024-02-21T12:31:50;9.60;99.90
52879;DHT22;38747;53.140;6.498;2024-02-21T12:34:16;9.70;99.90
52879;DHT22;38747;53.140;6.498;2024-02-21T12:36:46;9.70;99.90
52879;DHT22;38747;53.140;6.498;2024-02-21T12:39:14;9.80;99.90
52879;DHT22;38747;53.140;6.498;2024-02-21T12:41:41;9.80;99.90
52879;DHT22;38747;53.140;6.498;2024-02-21T12:44:10;9.90;99.90
52879;DHT22;38747;53.140;6.498;2024-02-21T12:46:37;9.90;99.90
52879;DHT22;38747;53.140;6.498;2024-02-21T12:49:03;9.90;99.90
52879;DHT22;38747;53.140;6.498;2024-02-21T12:51:32;9.90;99.90
52879;DHT22;38747;53.140;6.498;2024-02-21T12:53:58;9.90;99.90
52879;DHT22;38747;53.140;6.498;2024-02-21T12:56:24;9.90;99.90
52879;DHT22;38747;53.140;6.498;2024-02-21T12:58:51;9.80;99.90
52879;DHT22;38747;53.140;6.498;2024-02-21T13:01:17;9.80;99.90
52879;DHT22;38747;53.140;6.498;2024-02-21T13:03:42;9.80;99.90
52879;DHT22;38747;53.140;6.498;2024-02-21T13:06:08;9.80;99.90
52879;DHT22;38747;53.140;6.498;2024-02-21T13:08:36;9.80;99.90
52879;DHT22;38747;53.140;6.498;2024-02-21T13:11:02;9.90;99.90
52879;DHT22;38747;53.140;6.498;2024-02-21T13:13:28;9.90;99.90
52879;DHT22;38747;53.140;6.498;2024-02-21T13:15:53;9.90;99.90
52879;DHT22;38747;53.140;6.498;2024-02-21T13:18:19;10.00;99.90
52879;DHT22;38747;53.140;6.498;2024-02-21T13:20:44;9.90;99.90
52879;DHT22;38747;53.140;6.498;2024-02-21T13:23:10;10.00;99.90
52879;DHT22;38747;53.140;6.498;2024-02-21T13:25:36;10.00;99.90
52879;DHT22;38747;53.140;6.498;2024-02-21T13:28:01;10.10;99.90
52879;DHT22;38747;53.140;6.498;2024-02-21T13:30:28;10.10;99.90
52879;DHT22;38747;53.140;6.498;2024-02-21T13:32:54;10.20;99.90
52879;DHT22;38747;53.140;6.498;2024-02-21T13:35:20;10.20;99.90
52879;DHT22;38747;53.140;6.498;2024-02-21T13:37:46;10.20;99.90
52879;DHT22;38747;53.140;6.498;2024-02-21T13:40:12;10.10;99.90
52879;DHT22;38747;53.140;6.498;2024-02-21T13:42:40;10.10;99.90
52879;DHT22;38747;53.140;6.498;2024-02-21T13:45:06;10.10;99.90
52879;DHT22;38747;53.140;6.498;2024-02-21T13:47:33;10.10;99.90
52879;DHT22;38747;53.140;6.498;2024-02-21T13:50:01;10.00;99.90
52879;DHT22;38747;53.140;6.498;2024-02-21T13:52:26;10.10;99.90
52879;DHT22;38747;53.140;6.498;2024-02-21T13:54:52;10.10;99.90
52879;DHT22;38747;53.140;6.498;2024-02-21T13:57:18;10.00;99.90
52879;DHT22;38747;53.140;6.498;2024-02-21T13:59:44;10.00;99.90
52879;DHT22;38747;53.140;6.498;2024-02-21T14:02:09;10.00;99.90
52879;DHT22;38747;53.140;6.498;2024-02-21T14:04:35;9.90;99.90
52879;DHT22;38747;53.140;6.498;2024-02-21T14:07:01;9.90;99.90
52879;DHT22;38747;53.140;6.498;2024-02-21T14:09:29;9.90;99.90
52879;DHT22;38747;53.140;6.498;2024-02-21T14:11:55;9.80;99.90
52879;DHT22;38747;53.140;6.498;2024-02-21T14:14:21;9.90;99.90
52879;DHT22;38747;53.140;6.498;2024-02-21T14:16:47;9.90;99.90
52879;DHT22;38747;53.140;6.498;2024-02-21T14:19:13;9.80;99.90
52879;DHT22;38747;53.140;6.498;2024-02-21T14:21:40;9.80;99.90
52879;DHT22;38747;53.140;6.498;2024-02-21T14:24:06;9.70;99.90
52879;DHT22;38747;53.140;6.498;2024-02-21T14:26:32;9.70;99.90
52879;DHT22;38747;53.140;6.498;2024-02-21T14:28:58;9.70;99.90
52879;DHT22;38747;53.140;6.498;2024-02-21T14:31:24;9.70;99.90
52879;DHT22;38747;53.140;6.498;2024-02-21T14:33:50;9.70;99.90
52879;DHT22;38747;53.140;6.498;2024-02-21T14:36:16;9.70;99.90
52879;DHT22;38747;53.140;6.498;2024-02-21T14:38:42;9.70;99.90
52879;DHT22;38747;53.140;6.498;2024-02-21T14:41:09;9.60;99.90
52879;DHT22;38747;53.140;6.498;2024-02-21T14:43:34;9.60;99.90
52879;DHT22;38747;53.140;6.498;2024-02-21T14:46:01;9.60;99.90
52879;DHT22;38747;53.140;6.498;2024-02-21T14:48:30;9.60;99.90
52879;DHT22;38747;53.140;6.498;2024-02-21T14:50:57;9.50;99.90
52879;DHT22;38747;53.140;6.498;2024-02-21T14:53:23;9.40;99.90
52879;DHT22;38747;53.140;6.498;2024-02-21T14:55:48;9.50;99.90
52879;DHT22;38747;53.140;6.498;2024-02-21T14:58:15;9.40;99.90
52879;DHT22;38747;53.140;6.498;2024-02-21T15:00:42;9.40;99.90
52879;DHT22;38747;53.140;6.498;2024-02-21T15:03:08;9.40;99.90
52879;DHT22;38747;53.140;6.498;2024-02-21T15:05:34;9.40;99.90
52879;DHT22;38747;53.140;6.498;2024-02-21T15:07:59;9.40;99.90
52879;DHT22;38747;53.140;6.498;2024-02-21T15:10:25;9.40;99.90
52879;DHT22;38747;53.140;6.498;2024-02-21T15:12:50;9.40;99.90
52879;DHT22;38747;53.140;6.498;2024-02-21T15:15:16;9.40;99.90
52879;DHT22;38747;53.140;6.498;2024-02-21T15:17:42;9.40;99.90
52879;DHT22;38747;53.140;6.498;2024-02-21T15:20:08;9.40;99.90
52879;DHT22;38747;53.140;6.498;2024-02-21T15:22:34;9.30;99.90
52879;DHT22;38747;53.140;6.498;2024-02-21T15:25:01;9.40;99.90
52879;DHT22;38747;53.140;6.498;2024-02-21T15:27:27;9.30;99.90
52879;DHT22;38747;53.140;6.498;2024-02-21T15:29:53;9.40;99.90
52879;DHT22;38747;53.140;6.498;2024-02-21T15:32:20;9.40;99.90
52879;DHT22;38747;53.140;6.498;2024-02-21T15:34:46;9.40;99.90
52879;DHT22;38747;53.140;6.498;2024-02-21T15:37:14;9.30;99.90
52879;DHT22;38747;53.140;6.498;2024-02-21T15:39:42;9.30;99.90
52879;DHT22;38747;53.140;6.498;2024-02-21T15:42:11;9.30;99.90
52879;DHT22;38747;53.140;6.498;2024-02-21T15:44:37;9.30;99.90